createdAt,value
2018-01-30T00:00:34.169Z,1026.15
2018-01-30T00:01:34.160Z,1026.15
2018-01-30T00:02:34.164Z,1026.23
2018-01-30T00:03:34.121Z,1026.21
2018-01-30T00:04:34.099Z,1026.27
2018-01-30T00:05:34.084Z,1026.28
2018-01-30T00:06:34.068Z,1026.27
2018-01-30T00:07:34.049Z,1026.31
2018-01-30T00:08:34.056Z,1026.34
2018-01-30T00:09:34.018Z,1026.32
2018-01-30T00:10:33.997Z,1026.30
2018-01-30T00:11:33.981Z,1026.30
2018-01-30T00:12:33.962Z,1026.27
2018-01-30T00:13:33.958Z,1026.25
2018-01-30T00:14:33.926Z,1026.21
2018-01-30T00:15:33.905Z,1026.19
2018-01-30T00:16:33.891Z,1026.22
2018-01-30T00:17:33.873Z,1026.18
2018-01-30T00:18:35.620Z,1026.14
2018-01-30T00:19:33.856Z,1026.14
2018-01-30T00:20:33.822Z,1026.09
2018-01-30T00:21:33.803Z,1026.07
2018-01-30T00:22:33.783Z,1026.00
2018-01-30T00:23:33.768Z,1026.05
2018-01-30T00:24:33.750Z,1026.05
2018-01-30T00:25:33.748Z,1026.13
2018-01-30T00:26:33.721Z,1026.14
2018-01-30T00:27:33.696Z,1026.14
2018-01-30T00:28:33.676Z,1026.16
2018-01-30T00:29:33.660Z,1026.16
2018-01-30T00:30:33.645Z,1026.18
2018-01-30T00:31:33.643Z,1026.16
2018-01-30T00:32:33.610Z,1026.22
2018-01-30T00:33:33.589Z,1026.19
2018-01-30T00:34:33.588Z,1026.24
2018-01-30T00:35:33.550Z,1026.30
2018-01-30T00:36:33.535Z,1026.33
2018-01-30T00:37:33.535Z,1026.32
2018-01-30T00:38:33.502Z,1026.31
2018-01-30T00:39:33.483Z,1026.32
2018-01-30T00:40:33.480Z,1026.31
2018-01-30T00:41:33.448Z,1026.29
2018-01-30T00:42:33.444Z,1026.31
2018-01-30T00:43:33.413Z,1026.30
2018-01-30T00:44:33.395Z,1026.31
2018-01-30T00:45:33.372Z,1026.29
2018-01-30T00:46:33.365Z,1026.35
2018-01-30T00:47:33.362Z,1026.35
2018-01-30T00:48:33.322Z,1026.35
2018-01-30T00:49:33.305Z,1026.40
2018-01-30T00:50:33.289Z,1026.38
2018-01-30T00:51:33.269Z,1026.36
2018-01-30T00:52:33.267Z,1026.33
2018-01-30T00:53:33.247Z,1026.28
2018-01-30T00:54:33.231Z,1026.34
2018-01-30T00:55:33.199Z,1026.29
2018-01-30T00:56:33.181Z,1026.28
2018-01-30T00:57:33.164Z,1026.29
2018-01-30T00:58:33.161Z,1026.29
2018-01-30T00:59:33.125Z,1026.28
2018-01-30T01:00:33.113Z,1026.30
2018-01-30T01:01:33.091Z,1026.28
2018-01-30T01:02:33.074Z,1026.25
2018-01-30T01:03:33.067Z,1026.28
2018-01-30T01:04:33.037Z,1026.29
2018-01-30T01:05:33.033Z,1026.29
2018-01-30T01:06:33.003Z,1026.28
2018-01-30T01:07:32.984Z,1026.31
2018-01-30T01:08:32.965Z,1026.27
2018-01-30T01:09:32.963Z,1026.30
2018-01-30T01:10:32.930Z,1026.30
2018-01-30T01:11:32.911Z,1026.28
2018-01-30T01:12:32.892Z,1026.26
2018-01-30T01:13:32.875Z,1026.24
2018-01-30T01:14:32.875Z,1026.29
2018-01-30T01:15:32.838Z,1026.33
2018-01-30T01:16:32.819Z,1026.31
2018-01-30T01:17:32.807Z,1026.36
2018-01-30T01:18:32.786Z,1026.39
2018-01-30T01:19:32.765Z,1026.38
2018-01-30T01:20:32.763Z,1026.36
2018-01-30T01:21:32.725Z,1026.33
2018-01-30T01:22:32.727Z,1026.35
2018-01-30T01:23:32.697Z,1026.37
2018-01-30T01:24:32.676Z,1026.38
2018-01-30T01:25:32.659Z,1026.39
2018-01-30T01:26:32.641Z,1026.39
2018-01-30T01:27:32.624Z,1026.39
2018-01-30T01:28:32.621Z,1026.41
2018-01-30T01:29:32.588Z,1026.40
2018-01-30T01:30:32.574Z,1026.45
2018-01-30T01:31:32.552Z,1026.44
2018-01-30T01:32:32.531Z,1026.43
2018-01-30T01:33:32.517Z,1026.47
2018-01-30T01:34:32.512Z,1026.43
2018-01-30T01:35:32.480Z,1026.46
2018-01-30T01:36:32.459Z,1026.41
2018-01-30T01:37:32.442Z,1026.41
2018-01-30T01:38:32.426Z,1026.43
2018-01-30T01:39:32.406Z,1026.44
2018-01-30T01:40:32.399Z,1026.41
2018-01-30T01:41:32.371Z,1026.46
2018-01-30T01:42:32.352Z,1026.47
2018-01-30T01:43:32.336Z,1026.47
2018-01-30T01:44:32.332Z,1026.47
2018-01-30T01:45:32.298Z,1026.45
2018-01-30T01:46:32.294Z,1026.46
2018-01-30T01:47:32.260Z,1026.46
2018-01-30T01:48:32.245Z,1026.44
2018-01-30T01:49:32.228Z,1026.45
2018-01-30T01:50:32.224Z,1026.39
2018-01-30T01:51:32.189Z,1026.38
2018-01-30T01:52:32.171Z,1026.41
2018-01-30T01:53:32.154Z,1026.36
2018-01-30T01:54:32.132Z,1026.36
2018-01-30T01:55:32.132Z,1026.32
2018-01-30T01:56:32.112Z,1026.30
2018-01-30T01:57:32.084Z,1026.30
2018-01-30T01:58:32.062Z,1026.27
2018-01-30T01:59:32.044Z,1026.27
2018-01-30T02:00:32.025Z,1026.29
2018-01-30T02:01:32.024Z,1026.28
2018-01-30T02:02:31.990Z,1026.29
2018-01-30T02:03:31.969Z,1026.28
2018-01-30T02:04:31.954Z,1026.27
2018-01-30T02:05:31.934Z,1026.28
2018-01-30T02:06:31.927Z,1026.35
2018-01-30T02:07:31.913Z,1026.36
2018-01-30T02:08:31.879Z,1026.33
2018-01-30T02:09:31.862Z,1026.31
2018-01-30T02:10:31.841Z,1026.30
2018-01-30T02:11:31.826Z,1026.32
2018-01-30T02:12:31.824Z,1026.30
2018-01-30T02:13:31.788Z,1026.24
2018-01-30T02:14:31.768Z,1026.22
2018-01-30T02:15:31.752Z,1026.17
2018-01-30T02:16:31.733Z,1026.17
2018-01-30T02:17:31.715Z,1026.17
2018-01-30T02:18:31.708Z,1026.19
2018-01-30T02:19:31.679Z,1026.20
2018-01-30T02:20:31.675Z,1026.20
2018-01-30T02:21:31.641Z,1026.18
2018-01-30T02:22:31.623Z,1026.15
2018-01-30T02:23:31.604Z,1026.18
2018-01-30T02:24:31.585Z,1026.23
2018-01-30T02:25:31.581Z,1026.23
2018-01-30T02:26:31.549Z,1026.18
2018-01-30T02:27:31.539Z,1026.19
2018-01-30T02:28:31.524Z,1026.18
2018-01-30T02:29:31.506Z,1026.19
2018-01-30T02:30:31.475Z,1026.13
2018-01-30T02:31:31.457Z,1026.18
2018-01-30T02:32:31.437Z,1026.19
2018-01-30T02:33:31.418Z,1026.19
2018-01-30T02:34:31.414Z,1026.16
2018-01-30T02:35:31.383Z,1026.21
2018-01-30T02:36:31.378Z,1026.16
2018-01-30T02:37:31.343Z,1026.14
2018-01-30T02:38:31.322Z,1026.16
2018-01-30T02:39:31.311Z,1026.13
2018-01-30T02:40:31.304Z,1026.10
2018-01-30T02:41:31.270Z,1026.10
2018-01-30T02:42:31.248Z,1026.06
2018-01-30T02:43:31.235Z,1026.11
2018-01-30T02:44:31.216Z,1026.11
2018-01-30T02:45:31.211Z,1026.09
2018-01-30T02:46:31.182Z,1026.03
2018-01-30T02:47:31.158Z,1026.01
2018-01-30T02:48:31.141Z,1026.00
2018-01-30T02:49:31.118Z,1026.07
2018-01-30T02:50:31.126Z,1026.06
2018-01-30T02:51:31.086Z,1026.08
2018-01-30T02:52:31.075Z,1026.07
2018-01-30T02:53:31.043Z,1026.06
2018-01-30T02:54:31.026Z,1026.07
2018-01-30T02:55:31.004Z,1026.09
2018-01-30T02:56:31.004Z,1026.10
2018-01-30T02:57:30.972Z,1026.09
2018-01-30T02:58:30.951Z,1026.12
2018-01-30T02:59:30.937Z,1026.11
2018-01-30T03:00:30.914Z,1026.06
2018-01-30T03:01:30.899Z,1026.14
2018-01-30T03:02:30.894Z,1026.10
2018-01-30T03:03:30.861Z,1026.11
2018-01-30T03:04:30.843Z,1026.07
2018-01-30T03:05:30.824Z,1026.06
2018-01-30T03:06:30.801Z,1026.10
2018-01-30T03:07:30.783Z,1026.04
2018-01-30T03:08:30.782Z,1026.06
2018-01-30T03:09:30.745Z,1026.07
2018-01-30T03:10:30.726Z,1026.10
2018-01-30T03:11:30.708Z,1026.09
2018-01-30T03:12:30.689Z,1026.12
2018-01-30T03:13:30.683Z,1026.09
2018-01-30T03:14:30.662Z,1026.11
2018-01-30T03:15:30.635Z,1026.13
2018-01-30T03:16:30.617Z,1026.16
2018-01-30T03:17:30.610Z,1026.21
2018-01-30T03:18:30.570Z,1026.20
2018-01-30T03:19:30.571Z,1026.26
2018-01-30T03:20:30.536Z,1026.23
2018-01-30T03:21:30.519Z,1026.27
2018-01-30T03:22:30.501Z,1026.27
2018-01-30T03:23:30.479Z,1026.27
2018-01-30T03:24:30.475Z,1026.30
2018-01-30T03:25:30.442Z,1026.31
2018-01-30T03:26:30.425Z,1026.33
2018-01-30T03:27:30.420Z,1026.26
2018-01-30T03:28:30.386Z,1026.28
2018-01-30T03:29:30.371Z,1026.28
2018-01-30T03:30:30.363Z,1026.33
2018-01-30T03:31:30.328Z,1026.31
2018-01-30T03:32:30.305Z,1026.30
2018-01-30T03:33:30.285Z,1026.26
2018-01-30T03:34:30.273Z,1026.26
2018-01-30T03:35:30.256Z,1026.23
2018-01-30T03:36:30.248Z,1026.22
2018-01-30T03:37:30.230Z,1026.19
2018-01-30T03:38:30.194Z,1026.13
2018-01-30T03:39:30.177Z,1026.09
2018-01-30T03:40:30.164Z,1026.12
2018-01-30T03:41:30.154Z,1026.13
2018-01-30T03:42:30.122Z,1026.17
2018-01-30T03:43:30.101Z,1026.09
2018-01-30T03:44:30.081Z,1026.13
2018-01-30T03:45:30.064Z,1026.09
2018-01-30T03:46:30.061Z,1026.11
2018-01-30T03:47:30.043Z,1026.09
2018-01-30T03:48:30.006Z,1026.11
2018-01-30T03:49:29.985Z,1026.16
2018-01-30T03:50:29.970Z,1026.17
2018-01-30T03:51:29.964Z,1026.18
2018-01-30T03:52:29.929Z,1026.23
2018-01-30T03:53:29.927Z,1026.22
2018-01-30T03:54:29.906Z,1026.26
2018-01-30T03:55:29.872Z,1026.31
2018-01-30T03:56:29.852Z,1026.34
2018-01-30T03:57:29.854Z,1026.36
2018-01-30T03:58:29.823Z,1026.41
2018-01-30T03:59:29.797Z,1026.39
2018-01-30T04:00:29.780Z,1026.43
2018-01-30T04:01:29.761Z,1026.40
2018-01-30T04:02:29.743Z,1026.43
2018-01-30T04:03:29.739Z,1026.45
2018-01-30T04:04:29.705Z,1026.49
2018-01-30T04:05:29.684Z,1026.47
2018-01-30T04:06:29.665Z,1026.45
2018-01-30T04:07:29.651Z,1026.47
2018-01-30T04:08:29.630Z,1026.49
2018-01-30T04:09:29.627Z,1026.48
2018-01-30T04:10:29.591Z,1026.50
2018-01-30T04:11:29.569Z,1026.48
2018-01-30T04:12:29.552Z,1026.41
2018-01-30T04:13:29.535Z,1026.39
2018-01-30T04:14:29.518Z,1026.44
2018-01-30T04:15:29.514Z,1026.39
2018-01-30T04:16:29.479Z,1026.39
2018-01-30T04:17:29.461Z,1026.45
2018-01-30T04:18:29.442Z,1026.42
2018-01-30T04:19:29.441Z,1026.39
2018-01-30T04:20:29.400Z,1026.43
2018-01-30T04:21:29.403Z,1026.41
2018-01-30T04:22:29.367Z,1026.39
2018-01-30T04:23:29.348Z,1026.41
2018-01-30T04:24:29.345Z,1026.36
2018-01-30T04:25:29.311Z,1026.39
2018-01-30T04:26:29.291Z,1026.36
2018-01-30T04:27:29.275Z,1026.36
2018-01-30T04:28:29.253Z,1026.42
2018-01-30T04:29:29.252Z,1026.43
2018-01-30T04:30:29.221Z,1026.43
2018-01-30T04:31:29.197Z,1026.42
2018-01-30T04:32:29.179Z,1026.42
2018-01-30T04:33:29.158Z,1026.45
2018-01-30T04:34:29.142Z,1026.47
2018-01-30T04:35:29.139Z,1026.45
2018-01-30T04:36:29.145Z,1026.38
2018-01-30T04:37:29.098Z,1026.39
2018-01-30T04:38:29.080Z,1026.37
2018-01-30T04:39:29.050Z,1026.36
2018-01-30T04:40:29.026Z,1026.35
2018-01-30T04:41:29.000Z,1026.35
2018-01-30T04:42:28.990Z,1026.32
2018-01-30T04:43:28.987Z,1026.31
2018-01-30T04:44:28.953Z,1026.33
2018-01-30T04:45:28.948Z,1026.34
2018-01-30T04:46:28.917Z,1026.36
2018-01-30T04:47:28.893Z,1026.36
2018-01-30T04:48:28.875Z,1026.34
2018-01-30T04:49:28.857Z,1026.36
2018-01-30T04:50:28.853Z,1026.31
2018-01-30T04:51:28.818Z,1026.34
2018-01-30T04:52:28.802Z,1026.34
2018-01-30T04:53:28.783Z,1026.35
2018-01-30T04:54:28.760Z,1026.31
2018-01-30T04:55:28.757Z,1026.36
2018-01-30T04:56:28.733Z,1026.36
2018-01-30T04:57:28.702Z,1026.34
2018-01-30T04:58:28.680Z,1026.36
2018-01-30T04:59:28.662Z,1026.33
2018-01-30T05:00:28.658Z,1026.31
2018-01-30T05:01:28.625Z,1026.36
2018-01-30T05:02:28.606Z,1026.34
2018-01-30T05:03:28.602Z,1026.35
2018-01-30T05:04:28.569Z,1026.30
2018-01-30T05:05:28.546Z,1026.33
2018-01-30T05:06:28.529Z,1026.33
2018-01-30T05:07:28.525Z,1026.38
2018-01-30T05:08:28.490Z,1026.42
2018-01-30T05:09:28.469Z,1026.44
2018-01-30T05:10:28.452Z,1026.39
2018-01-30T05:11:28.429Z,1026.36
2018-01-30T05:12:28.428Z,1026.32
2018-01-30T05:13:28.410Z,1026.33
2018-01-30T05:14:28.378Z,1026.24
2018-01-30T05:15:28.355Z,1026.24
2018-01-30T05:16:28.336Z,1026.21
2018-01-30T05:17:28.317Z,1026.21
2018-01-30T05:18:28.295Z,1026.18
2018-01-30T05:19:28.292Z,1026.24
2018-01-30T05:20:28.256Z,1026.23
2018-01-30T05:21:28.240Z,1026.26
2018-01-30T05:22:28.225Z,1026.25
2018-01-30T05:23:28.215Z,1026.28
2018-01-30T05:24:28.180Z,1026.30
2018-01-30T05:25:28.177Z,1026.35
2018-01-30T05:26:28.138Z,1026.40
2018-01-30T05:27:28.123Z,1026.41
2018-01-30T05:28:28.103Z,1026.41
2018-01-30T05:29:28.086Z,1026.42
2018-01-30T05:30:28.065Z,1026.42
2018-01-30T05:31:49.055Z,1026.43
2018-01-30T05:32:28.026Z,1026.48
2018-01-30T05:33:28.003Z,1026.50
2018-01-30T05:34:27.990Z,1026.51
2018-01-30T05:35:27.969Z,1026.54
2018-01-30T05:36:27.948Z,1026.51
2018-01-30T05:37:27.943Z,1026.51
2018-01-30T05:38:27.910Z,1026.49
2018-01-30T05:39:27.905Z,1026.56
2018-01-30T05:40:27.873Z,1026.56
2018-01-30T05:41:27.851Z,1026.55
2018-01-30T05:42:27.848Z,1026.50
2018-01-30T05:43:27.815Z,1026.48
2018-01-30T05:44:27.796Z,1026.50
2018-01-30T05:45:27.776Z,1026.50
2018-01-30T05:46:27.758Z,1026.56
2018-01-30T05:47:27.755Z,1026.56
2018-01-30T05:48:27.719Z,1026.59
2018-01-30T05:49:27.698Z,1026.58
2018-01-30T05:50:27.680Z,1026.66
2018-01-30T05:51:27.663Z,1026.80
2018-01-30T05:52:27.644Z,1026.90
2018-01-30T05:53:27.638Z,1026.95
2018-01-30T05:54:27.600Z,1026.91
2018-01-30T05:55:27.588Z,1026.89
2018-01-30T05:56:27.579Z,1026.84
2018-01-30T05:57:27.560Z,1026.73
2018-01-30T05:58:27.527Z,1026.65
2018-01-30T05:59:27.520Z,1026.61
2018-01-30T06:00:27.488Z,1026.58
2018-01-30T06:01:27.467Z,1026.56
2018-01-30T06:02:27.450Z,1026.48
2018-01-30T06:03:27.430Z,1026.36
2018-01-30T06:04:27.429Z,1026.32
2018-01-30T06:05:27.393Z,1026.27
2018-01-30T06:06:27.374Z,1026.29
2018-01-30T06:07:28.187Z,1026.30
2018-01-30T06:08:27.333Z,1026.30
2018-01-30T06:09:27.329Z,1026.35
2018-01-30T06:10:27.297Z,1026.29
2018-01-30T06:11:27.277Z,1026.29
2018-01-30T06:12:27.257Z,1026.38
2018-01-30T06:13:27.237Z,1026.46
2018-01-30T06:14:27.237Z,1026.46
2018-01-30T06:15:27.198Z,1026.49
2018-01-30T06:16:27.178Z,1026.51
2018-01-30T06:17:27.159Z,1026.53
2018-01-30T06:18:27.139Z,1026.55
2018-01-30T06:19:27.128Z,1026.54
2018-01-30T06:20:27.114Z,1026.55
2018-01-30T06:21:27.079Z,1026.54
2018-01-30T06:22:27.064Z,1026.52
2018-01-30T06:23:27.046Z,1026.57
2018-01-30T06:24:27.025Z,1026.60
2018-01-30T06:25:27.020Z,1026.58
2018-01-30T06:26:27.002Z,1026.61
2018-01-30T06:27:26.968Z,1026.56
2018-01-30T06:28:26.947Z,1026.55
2018-01-30T06:29:26.929Z,1026.47
2018-01-30T06:30:27.732Z,1026.49
2018-01-30T06:31:26.909Z,1026.48
2018-01-30T06:32:26.868Z,1026.49
2018-01-30T06:33:26.851Z,1026.51
2018-01-30T06:34:26.831Z,1026.53
2018-01-30T06:35:26.812Z,1026.50
2018-01-30T06:36:26.793Z,1026.53
2018-01-30T06:37:26.788Z,1026.61
2018-01-30T06:38:26.755Z,1026.59
2018-01-30T06:39:26.736Z,1026.63
2018-01-30T06:40:26.712Z,1026.62
2018-01-30T06:41:26.714Z,1026.63
2018-01-30T06:42:26.676Z,1026.63
2018-01-30T06:43:26.660Z,1026.63
2018-01-30T06:44:26.638Z,1026.67
2018-01-30T06:45:26.635Z,1026.66
2018-01-30T06:46:26.600Z,1026.62
2018-01-30T06:47:26.598Z,1026.63
2018-01-30T06:48:26.582Z,1026.66
2018-01-30T06:49:26.544Z,1026.66
2018-01-30T06:50:26.523Z,1026.60
2018-01-30T06:51:26.516Z,1026.63
2018-01-30T06:52:26.487Z,1026.67
2018-01-30T06:53:26.468Z,1026.68
2018-01-30T06:54:26.464Z,1026.71
2018-01-30T06:55:26.446Z,1026.73
2018-01-30T06:56:26.421Z,1026.74
2018-01-30T06:57:26.392Z,1026.75
2018-01-30T06:58:26.369Z,1026.72
2018-01-30T06:59:26.369Z,1026.67
2018-01-30T07:00:26.331Z,1026.64
2018-01-30T07:01:26.316Z,1026.65
2018-01-30T07:02:26.294Z,1026.69
2018-01-30T07:03:26.274Z,1026.66
2018-01-30T07:04:26.257Z,1026.72
2018-01-30T07:05:26.249Z,1026.73
2018-01-30T07:06:26.217Z,1026.74
2018-01-30T07:07:26.200Z,1026.73
2018-01-30T07:08:26.193Z,1026.70
2018-01-30T07:09:26.164Z,1026.68
2018-01-30T07:10:26.156Z,1026.67
2018-01-30T07:11:26.122Z,1026.71
2018-01-30T07:12:26.101Z,1026.68
2018-01-30T07:13:26.084Z,1026.69
2018-01-30T07:14:26.072Z,1026.67
2018-01-30T07:15:26.057Z,1026.69
2018-01-30T07:16:26.026Z,1026.74
2018-01-30T07:17:26.009Z,1026.76
2018-01-30T07:18:25.990Z,1026.75
2018-01-30T07:19:25.964Z,1026.73
2018-01-30T07:20:25.947Z,1026.71
2018-01-30T07:21:25.942Z,1026.69
2018-01-30T07:22:25.910Z,1026.70
2018-01-30T07:23:25.907Z,1026.70
2018-01-30T07:24:26.112Z,1026.74
2018-01-30T07:25:25.874Z,1026.69
2018-01-30T07:26:26.084Z,1026.78
2018-01-30T07:27:25.814Z,1026.77
2018-01-30T07:28:25.795Z,1026.76
2018-01-30T07:29:25.790Z,1026.82
2018-01-30T07:30:25.756Z,1026.85
2018-01-30T07:31:25.734Z,1026.86
2018-01-30T07:32:25.718Z,1026.88
2018-01-30T07:33:25.702Z,1026.85
2018-01-30T07:34:25.679Z,1026.81
2018-01-30T07:35:25.673Z,1026.89
2018-01-30T07:36:25.640Z,1026.90
2018-01-30T07:37:25.637Z,1026.90
2018-01-30T07:38:25.604Z,1026.93
2018-01-30T07:39:25.583Z,1026.94
2018-01-30T07:40:25.563Z,1026.92
2018-01-30T07:41:25.591Z,1026.91
2018-01-30T07:42:25.541Z,1026.92
2018-01-30T07:43:25.503Z,1026.89
2018-01-30T07:44:25.490Z,1026.89
2018-01-30T07:45:25.466Z,1026.89
2018-01-30T07:46:25.448Z,1026.90
2018-01-30T07:47:25.429Z,1026.94
2018-01-30T07:48:25.429Z,1026.90
2018-01-30T07:49:25.391Z,1026.87
2018-01-30T07:50:25.373Z,1026.91
2018-01-30T07:51:25.353Z,1026.90
2018-01-30T07:52:25.332Z,1026.87
2018-01-30T07:53:25.313Z,1026.89
2018-01-30T07:54:25.307Z,1026.89
2018-01-30T07:55:25.276Z,1026.86
2018-01-30T07:56:25.250Z,1026.83
2018-01-30T07:57:25.236Z,1026.86
2018-01-30T07:58:25.233Z,1026.87
2018-01-30T07:59:25.201Z,1026.87
2018-01-30T08:00:25.193Z,1026.91
2018-01-30T08:01:25.161Z,1026.90
2018-01-30T08:02:25.151Z,1026.87
2018-01-30T08:03:25.140Z,1026.85
2018-01-30T08:04:25.100Z,1026.84
2018-01-30T08:05:25.086Z,1026.81
2018-01-30T08:06:25.066Z,1026.80
2018-01-30T08:07:25.046Z,1026.83
2018-01-30T08:08:25.034Z,1026.87
2018-01-30T08:09:25.006Z,1026.88
2018-01-30T08:10:25.027Z,1026.88
2018-01-30T08:11:24.970Z,1026.84
2018-01-30T08:12:24.962Z,1026.82
2018-01-30T08:13:24.945Z,1026.78
2018-01-30T08:14:24.907Z,1026.76
2018-01-30T08:15:24.893Z,1026.78
2018-01-30T08:16:25.725Z,1026.75
2018-01-30T08:17:24.849Z,1026.78
2018-01-30T08:18:25.658Z,1026.76
2018-01-30T08:19:24.856Z,1026.74
2018-01-30T08:20:24.808Z,1026.75
2018-01-30T08:21:24.776Z,1026.77
2018-01-30T08:22:24.756Z,1026.82
2018-01-30T08:23:24.738Z,1026.83
2018-01-30T08:24:24.724Z,1026.82
2018-01-30T08:25:24.713Z,1026.80
2018-01-30T08:26:24.681Z,1026.76
2018-01-30T08:27:24.663Z,1026.79
2018-01-30T08:28:24.658Z,1026.79
2018-01-30T08:29:24.622Z,1026.79
2018-01-30T08:30:24.617Z,1026.75
2018-01-30T08:31:24.605Z,1026.73
2018-01-30T08:32:24.563Z,1026.69
2018-01-30T08:33:24.544Z,1026.73
2018-01-30T08:34:24.530Z,1026.81
2018-01-30T08:35:24.524Z,1026.88
2018-01-30T08:36:24.491Z,1026.88
2018-01-30T08:37:24.498Z,1026.84
2018-01-30T08:38:24.454Z,1026.86
2018-01-30T08:39:24.439Z,1026.86
2018-01-30T08:40:24.411Z,1026.86
2018-01-30T08:41:24.396Z,1026.82
2018-01-30T08:42:24.393Z,1026.88
2018-01-30T08:43:24.358Z,1026.87
2018-01-30T08:44:24.339Z,1026.86
2018-01-30T08:45:24.321Z,1026.89
2018-01-30T08:46:24.316Z,1026.91
2018-01-30T08:47:24.280Z,1026.94
2018-01-30T08:48:24.282Z,1026.95
2018-01-30T08:49:24.244Z,1026.96
2018-01-30T08:50:24.226Z,1026.94
2018-01-30T08:51:24.205Z,1026.94
2018-01-30T08:52:24.190Z,1026.98
2018-01-30T08:53:24.192Z,1026.95
2018-01-30T08:54:24.151Z,1027.01
2018-01-30T08:55:24.132Z,1026.98
2018-01-30T08:56:24.115Z,1026.99
2018-01-30T08:57:24.099Z,1027.01
2018-01-30T08:58:24.080Z,1027.01
2018-01-30T08:59:24.071Z,1026.98
2018-01-30T09:00:24.044Z,1026.98
2018-01-30T09:01:24.029Z,1026.97
2018-01-30T09:02:24.001Z,1027.00
2018-01-30T09:03:23.991Z,1027.03
2018-01-30T09:04:23.985Z,1026.99
2018-01-30T09:05:23.949Z,1026.99
2018-01-30T09:06:23.932Z,1027.01
2018-01-30T09:07:23.927Z,1027.01
2018-01-30T09:08:23.889Z,1027.06
2018-01-30T09:09:23.885Z,1027.01
2018-01-30T09:10:23.863Z,1027.05
2018-01-30T09:11:23.837Z,1027.06
2018-01-30T09:12:23.822Z,1027.04
2018-01-30T09:13:23.801Z,1027.10
2018-01-30T09:14:23.800Z,1027.09
2018-01-30T09:15:23.764Z,1027.10
2018-01-30T09:16:23.749Z,1027.07
2018-01-30T09:17:23.731Z,1027.10
2018-01-30T09:18:23.711Z,1027.11
2018-01-30T09:19:23.707Z,1027.09
2018-01-30T09:20:23.670Z,1027.11
2018-01-30T09:21:23.651Z,1027.13
2018-01-30T09:22:23.635Z,1027.11
2018-01-30T09:23:23.618Z,1027.12
2018-01-30T09:24:23.624Z,1027.14
2018-01-30T09:25:24.665Z,1027.13
2018-01-30T09:26:23.568Z,1027.14
2018-01-30T09:27:23.560Z,1027.14
2018-01-30T09:28:23.529Z,1027.12
2018-01-30T09:29:23.508Z,1027.10
2018-01-30T09:30:23.490Z,1027.12
2018-01-30T09:31:23.489Z,1027.15
2018-01-30T09:32:23.454Z,1027.11
2018-01-30T09:33:23.439Z,1027.09
2018-01-30T09:34:23.418Z,1027.09
2018-01-30T09:35:23.422Z,1027.07
2018-01-30T09:36:23.379Z,1027.07
2018-01-30T09:37:23.363Z,1027.11
2018-01-30T09:38:23.344Z,1027.12
2018-01-30T09:39:23.328Z,1027.13
2018-01-30T09:40:23.310Z,1027.05
2018-01-30T09:41:23.306Z,1027.08
2018-01-30T09:42:23.272Z,1027.04
2018-01-30T09:43:23.258Z,1027.07
2018-01-30T09:44:23.240Z,1027.09
2018-01-30T09:45:23.221Z,1027.08
2018-01-30T09:46:23.219Z,1027.09
2018-01-30T09:47:23.216Z,1027.09
2018-01-30T09:48:23.169Z,1027.10
2018-01-30T09:49:23.164Z,1027.08
2018-01-30T09:50:23.135Z,1027.15
2018-01-30T09:51:23.115Z,1027.15
2018-01-30T09:52:23.100Z,1027.13
2018-01-30T09:53:23.093Z,1027.10
2018-01-30T09:54:23.063Z,1027.10
2018-01-30T09:55:23.044Z,1027.09
2018-01-30T09:56:23.043Z,1027.08
2018-01-30T09:57:23.010Z,1027.09
2018-01-30T09:58:23.005Z,1027.07
2018-01-30T09:59:22.974Z,1027.14
2018-01-30T10:00:22.957Z,1027.09
2018-01-30T10:01:22.955Z,1027.11
2018-01-30T10:02:22.917Z,1027.10
2018-01-30T10:03:22.905Z,1027.10
2018-01-30T10:04:22.885Z,1027.06
2018-01-30T10:05:22.865Z,1027.08
2018-01-30T10:06:22.868Z,1027.03
2018-01-30T10:07:22.838Z,1027.00
2018-01-30T10:08:22.815Z,1026.98
2018-01-30T10:09:22.800Z,1026.98
2018-01-30T10:10:22.792Z,1026.95
2018-01-30T10:11:22.761Z,1026.95
2018-01-30T10:12:22.747Z,1027.00
2018-01-30T10:13:22.726Z,1027.00
2018-01-30T10:14:22.714Z,1027.04
2018-01-30T10:15:22.712Z,1027.00
2018-01-30T10:16:22.675Z,1027.00
2018-01-30T10:17:22.662Z,1027.02
2018-01-30T10:18:22.643Z,1026.98
2018-01-30T10:19:22.626Z,1026.99
2018-01-30T10:20:22.625Z,1027.05
2018-01-30T10:21:22.590Z,1027.00
2018-01-30T10:22:22.574Z,1026.92
2018-01-30T10:23:22.583Z,1026.96
2018-01-30T10:24:22.538Z,1026.98
2018-01-30T10:25:22.535Z,1027.01
2018-01-30T10:26:22.524Z,1027.01
2018-01-30T10:27:22.497Z,1026.97
2018-01-30T10:28:22.475Z,1026.99
2018-01-30T10:29:22.470Z,1026.99
2018-01-30T10:30:22.443Z,1026.93
2018-01-30T10:31:22.442Z,1026.95
2018-01-30T10:32:22.408Z,1026.98
2018-01-30T10:33:22.404Z,1026.92
2018-01-30T10:34:22.371Z,1026.91
2018-01-30T10:35:22.372Z,1026.92
2018-01-30T10:36:22.357Z,1026.95
2018-01-30T10:37:22.324Z,1026.95
2018-01-30T10:38:22.308Z,1026.94
2018-01-30T10:39:22.295Z,1026.92
2018-01-30T10:40:22.277Z,1026.94
2018-01-30T10:41:22.272Z,1027.04
2018-01-30T10:42:22.244Z,1027.03
2018-01-30T10:43:22.225Z,1026.99
2018-01-30T10:44:22.206Z,1027.02
2018-01-30T10:45:22.188Z,1026.99
2018-01-30T10:46:22.193Z,1026.98
2018-01-30T10:47:22.158Z,1027.02
2018-01-30T10:48:22.145Z,1027.01
2018-01-30T10:49:22.142Z,1026.94
2018-01-30T10:50:22.111Z,1026.96
2018-01-30T10:51:22.111Z,1026.88
2018-01-30T10:52:22.079Z,1026.88
2018-01-30T10:53:22.063Z,1026.82
2018-01-30T10:54:22.063Z,1026.81
2018-01-30T10:55:22.034Z,1026.76
2018-01-30T10:56:22.015Z,1026.76
2018-01-30T10:57:21.997Z,1026.82
2018-01-30T10:58:21.980Z,1026.83
2018-01-30T10:59:21.966Z,1026.75
2018-01-30T11:00:21.969Z,1026.64
2018-01-30T11:01:21.938Z,1026.64
2018-01-30T11:02:21.923Z,1026.61
2018-01-30T11:03:21.928Z,1026.65
2018-01-30T11:04:21.937Z,1026.66
2018-01-30T11:05:21.877Z,1026.61
2018-01-30T11:06:21.861Z,1026.59
2018-01-30T11:07:21.846Z,1026.62
2018-01-30T11:08:21.852Z,1026.65
2018-01-30T11:09:21.818Z,1026.67
2018-01-30T11:10:21.800Z,1026.65
2018-01-30T11:11:21.786Z,1026.62
2018-01-30T11:12:21.771Z,1026.63
2018-01-30T11:13:21.744Z,1026.65
2018-01-30T11:14:42.802Z,1026.61
2018-01-30T11:15:21.726Z,1026.63
2018-01-30T11:16:21.707Z,1026.63
2018-01-30T11:17:21.705Z,1026.59
2018-01-30T11:18:21.675Z,1026.56
2018-01-30T11:19:21.679Z,1026.56
2018-01-30T11:20:21.653Z,1026.52
2018-01-30T11:21:21.636Z,1026.57
2018-01-30T11:22:21.622Z,1026.59
2018-01-30T11:23:21.623Z,1026.54
2018-01-30T11:24:21.606Z,1026.43
2018-01-30T11:25:21.584Z,1026.41
2018-01-30T11:26:21.567Z,1026.47
2018-01-30T11:27:21.554Z,1026.38
2018-01-30T11:28:21.558Z,1026.40
2018-01-30T11:29:21.541Z,1026.46
2018-01-30T11:30:21.519Z,1026.44
2018-01-30T11:31:21.502Z,1026.49
2018-01-30T11:32:21.490Z,1026.49
2018-01-30T11:33:21.495Z,1026.35
2018-01-30T11:34:21.461Z,1026.47
2018-01-30T11:35:21.448Z,1026.43
2018-01-30T11:36:21.466Z,1026.43
2018-01-30T11:37:21.424Z,1026.39
2018-01-30T11:38:21.409Z,1026.34
2018-01-30T11:39:21.392Z,1026.36
2018-01-30T11:40:21.401Z,1026.32
2018-01-30T11:41:21.381Z,1026.21
2018-01-30T11:42:21.351Z,1026.22
2018-01-30T11:43:21.338Z,1026.32
2018-01-30T11:44:21.328Z,1026.23
2018-01-30T11:45:21.337Z,1026.18
2018-01-30T11:46:21.300Z,1026.21
2018-01-30T11:47:21.292Z,1026.19
2018-01-30T11:48:21.280Z,1026.19
2018-01-30T11:49:21.254Z,1026.25
2018-01-30T11:50:21.259Z,1026.18
2018-01-30T11:51:21.250Z,1026.21
2018-01-30T11:53:21.275Z,1026.20
2018-01-30T11:54:21.182Z,1026.21
2018-01-30T11:55:21.166Z,1026.24
2018-01-30T11:56:21.154Z,1026.27
2018-01-30T11:57:21.155Z,1026.22
2018-01-30T11:58:21.124Z,1026.26
2018-01-30T11:59:21.111Z,1026.25
2018-01-30T12:00:21.095Z,1026.23
2018-01-30T12:01:21.095Z,1026.25
2018-01-30T12:02:21.084Z,1026.27
2018-01-30T12:03:21.069Z,1026.20
2018-01-30T12:04:21.031Z,1026.21
2018-01-30T12:05:21.020Z,1026.29
2018-01-30T12:06:21.008Z,1026.17